createdAt,value
2023-03-05T00:01:25.422Z,4.30
2023-03-05T00:03:54.616Z,4.20
2023-03-05T00:06:24.261Z,4.30
2023-03-05T00:08:53.311Z,4.40
2023-03-05T00:11:21.477Z,4.40
2023-03-05T00:13:52.136Z,4.40
2023-03-05T00:16:20.437Z,4.40
2023-03-05T00:18:48.366Z,4.30
2023-03-05T00:21:25.430Z,4.20
2023-03-05T00:23:53.588Z,4.10
2023-03-05T00:26:22.621Z,4.00
2023-03-05T00:28:52.352Z,4.00
2023-03-05T00:31:25.578Z,3.90
2023-03-05T00:34:01.559Z,3.90
2023-03-05T00:36:29.586Z,3.80
2023-03-05T00:38:57.285Z,3.90
2023-03-05T00:41:24.599Z,3.90
2023-03-05T00:43:51.905Z,3.90
2023-03-05T00:46:19.222Z,3.80
2023-03-05T00:48:46.616Z,3.90
2023-03-05T00:51:13.967Z,3.90
2023-03-05T00:53:41.246Z,3.90
2023-03-05T00:56:08.557Z,3.90
2023-03-05T00:58:35.898Z,3.90
2023-03-05T01:01:04.493Z,3.90
2023-03-05T01:03:33.837Z,3.90
2023-03-05T01:06:04.463Z,3.90
2023-03-05T01:08:31.774Z,3.90
2023-03-05T01:10:59.188Z,3.90
2023-03-05T01:13:26.504Z,4.00
2023-03-05T01:15:53.722Z,4.00
2023-03-05T01:18:23.520Z,4.00
2023-03-05T01:20:50.821Z,4.00
2023-03-05T01:23:18.481Z,4.00
2023-03-05T01:25:45.783Z,4.00
2023-03-05T01:28:13.322Z,4.00
2023-03-05T01:30:40.591Z,4.10
2023-03-05T01:33:07.847Z,4.10
2023-03-05T01:35:35.453Z,4.00
2023-03-05T01:38:02.859Z,4.00
2023-03-05T01:40:31.834Z,4.00
2023-03-05T01:43:21.325Z,4.00
2023-03-05T01:46:27.313Z,4.00
2023-03-05T01:49:07.779Z,4.00
2023-03-05T01:52:00.850Z,4.00
2023-03-05T01:54:33.667Z,4.00
2023-03-05T01:57:07.790Z,4.00
2023-03-05T01:59:37.786Z,4.00
2023-03-05T02:02:07.937Z,4.10
2023-03-05T02:04:45.922Z,4.10
2023-03-05T02:07:14.941Z,4.00
2023-03-05T02:09:42.506Z,4.00
2023-03-05T02:12:12.141Z,4.00
2023-03-05T02:14:42.693Z,4.00
2023-03-05T02:17:12.240Z,4.00
2023-03-05T02:19:54.841Z,4.00
2023-03-05T02:22:24.106Z,4.00
2023-03-05T02:24:52.394Z,4.00
2023-03-05T02:27:24.846Z,4.00
2023-03-05T02:29:52.629Z,4.00
2023-03-05T02:32:19.928Z,4.00
2023-03-05T02:34:47.540Z,3.90
2023-03-05T02:37:15.899Z,3.90
2023-03-05T02:39:43.191Z,3.90
2023-03-05T02:42:10.660Z,3.90
2023-03-05T02:44:38.257Z,3.80
2023-03-05T02:47:05.713Z,3.90
2023-03-05T02:49:34.410Z,3.80
2023-03-05T02:52:01.722Z,3.80
2023-03-05T02:54:29.163Z,3.80
2023-03-05T02:56:56.450Z,3.80
2023-03-05T02:59:23.723Z,3.80
2023-03-05T03:01:51.068Z,3.70
2023-03-05T03:04:18.325Z,3.70
2023-03-05T03:06:45.612Z,3.70
2023-03-05T03:09:12.894Z,3.70
2023-03-05T03:11:40.238Z,3.70
2023-03-05T03:14:07.539Z,3.60
2023-03-05T03:16:34.999Z,3.70
2023-03-05T03:19:02.322Z,3.70
2023-03-05T03:21:29.562Z,3.70
2023-03-05T03:23:56.912Z,3.60
2023-03-05T03:26:24.228Z,3.60
2023-03-05T03:28:51.492Z,3.60
2023-03-05T03:31:18.802Z,3.50
2023-03-05T03:33:46.178Z,3.60
2023-03-05T03:36:13.828Z,3.60
2023-03-05T03:38:41.198Z,3.50
2023-03-05T03:41:09.292Z,3.60
2023-03-05T03:43:37.058Z,3.50
2023-03-05T03:46:09.194Z,3.50
2023-03-05T03:48:36.638Z,3.50
2023-03-05T03:51:06.025Z,3.40
2023-03-05T03:53:33.642Z,3.40
2023-03-05T03:56:00.991Z,3.30
2023-03-05T03:58:28.323Z,3.30
2023-03-05T04:00:55.608Z,3.30
2023-03-05T04:03:22.856Z,3.30
2023-03-05T04:05:50.200Z,3.30
2023-03-05T04:08:17.470Z,3.30
2023-03-05T04:10:44.874Z,3.30
2023-03-05T04:13:12.113Z,3.40
2023-03-05T04:15:40.181Z,3.40
2023-03-05T04:18:07.495Z,3.50
2023-03-05T04:20:34.833Z,3.50
2023-03-05T04:23:02.187Z,3.50
2023-03-05T04:25:29.530Z,3.40
2023-03-05T04:27:56.787Z,3.50
2023-03-05T04:30:24.345Z,3.40
2023-03-05T04:32:51.740Z,3.40
2023-03-05T04:35:19.141Z,3.40
2023-03-05T04:37:47.288Z,3.40
2023-03-05T04:40:15.182Z,3.40
2023-03-05T04:42:42.700Z,3.50
2023-03-05T04:45:10.742Z,3.40
2023-03-05T04:47:38.589Z,3.40
2023-03-05T04:50:06.912Z,3.40
2023-03-05T04:52:34.181Z,3.40
2023-03-05T04:55:01.493Z,3.40
2023-03-05T04:57:28.745Z,3.40
2023-03-05T04:59:56.067Z,3.30
2023-03-05T05:02:23.431Z,3.30
2023-03-05T05:04:54.011Z,3.40
2023-03-05T05:07:21.738Z,3.40
2023-03-05T05:09:49.014Z,3.40
2023-03-05T05:12:16.360Z,3.40
2023-03-05T05:14:43.713Z,3.40
2023-03-05T05:17:10.970Z,3.40
2023-03-05T05:19:38.243Z,3.40
2023-03-05T05:22:05.598Z,3.50
2023-03-05T05:24:32.881Z,3.40
2023-03-05T05:27:00.110Z,3.40
2023-03-05T05:29:27.368Z,3.40
2023-03-05T05:31:56.313Z,3.40
2023-03-05T05:34:25.318Z,3.40
2023-03-05T05:36:52.733Z,3.30
2023-03-05T05:39:20.587Z,3.30
2023-03-05T05:41:53.714Z,3.30
2023-03-05T05:44:20.959Z,3.30
2023-03-05T05:46:48.278Z,3.30
2023-03-05T05:49:15.623Z,3.30
2023-03-05T05:51:42.997Z,3.30
2023-03-05T05:54:13.780Z,3.30
2023-03-05T05:56:41.359Z,3.30
2023-03-05T05:59:10.686Z,3.30
2023-03-05T06:01:38.057Z,3.30
2023-03-05T06:04:05.346Z,3.30
2023-03-05T06:06:34.611Z,3.30
2023-03-05T06:09:02.442Z,3.30
2023-03-05T06:11:29.795Z,3.30
2023-03-05T06:13:57.074Z,3.30
2023-03-05T06:16:25.009Z,3.40
2023-03-05T06:18:52.953Z,3.40
2023-03-05T06:21:21.538Z,3.40
2023-03-05T06:23:49.554Z,3.40
2023-03-05T06:26:20.875Z,3.40
2023-03-05T06:28:48.650Z,3.40
2023-03-05T06:31:18.914Z,3.40
2023-03-05T06:33:46.199Z,3.40
2023-03-05T06:36:15.471Z,3.50
2023-03-05T06:38:43.473Z,3.50
2023-03-05T06:41:13.719Z,3.50
2023-03-05T06:43:43.464Z,3.50
2023-03-05T06:46:16.529Z,3.50
2023-03-05T06:48:44.406Z,3.50
2023-03-05T06:51:41.278Z,3.50
2023-03-05T06:54:14.497Z,3.60
2023-03-05T06:56:44.307Z,3.60
2023-03-05T06:59:13.266Z,3.60
2023-03-05T07:01:40.598Z,3.60
2023-03-05T07:04:08.014Z,3.60
2023-03-05T07:06:38.598Z,3.70
2023-03-05T07:09:07.829Z,3.70
2023-03-05T07:11:35.413Z,3.70
2023-03-05T07:14:03.621Z,3.70
2023-03-05T07:16:33.773Z,3.80
2023-03-05T07:19:05.221Z,3.80
2023-03-05T07:21:34.692Z,3.80
2023-03-05T07:24:04.200Z,3.90
2023-03-05T07:26:33.393Z,3.90
2023-03-05T07:29:01.964Z,4.00
2023-03-05T07:31:31.755Z,4.00
2023-03-05T07:34:00.800Z,4.10
2023-03-05T07:36:28.224Z,4.20
2023-03-05T07:38:55.529Z,4.30
2023-03-05T07:41:23.738Z,4.30
2023-03-05T07:43:53.521Z,4.40
2023-03-05T07:46:24.568Z,4.50
2023-03-05T07:48:54.522Z,4.60
2023-03-05T07:51:23.427Z,4.60
2023-03-05T07:53:52.482Z,4.70
2023-03-05T07:56:35.306Z,4.80
2023-03-05T07:59:08.595Z,5.10
2023-03-05T08:01:36.561Z,5.20
2023-03-05T08:04:06.544Z,5.50
2023-03-05T08:06:33.870Z,5.80
2023-03-05T08:09:01.164Z,6.20
2023-03-05T08:11:28.783Z,6.60
2023-03-05T08:13:59.387Z,6.50
2023-03-05T08:16:27.550Z,6.60
2023-03-05T08:18:57.348Z,6.40
2023-03-05T08:21:29.325Z,6.40
2023-03-05T08:23:57.982Z,6.40
2023-03-05T08:26:27.775Z,6.40
2023-03-05T08:28:55.406Z,6.40
2023-03-05T08:31:24.004Z,6.70
2023-03-05T08:33:52.830Z,6.60
2023-03-05T08:36:20.985Z,6.50
2023-03-05T08:38:49.130Z,6.60
2023-03-05T08:41:18.009Z,6.60
2023-03-05T08:43:45.395Z,6.60
2023-03-05T08:46:16.873Z,6.40
2023-03-05T08:48:44.428Z,6.60
2023-03-05T08:51:14.649Z,6.80
2023-03-05T08:53:44.170Z,7.10
2023-03-05T08:56:11.885Z,7.00
2023-03-05T08:58:39.784Z,7.00
2023-03-05T09:01:07.570Z,7.10
2023-03-05T09:03:35.001Z,7.20
2023-03-05T09:06:04.928Z,7.20
2023-03-05T09:08:32.381Z,7.30
2023-03-05T09:11:03.188Z,6.80
2023-03-05T09:13:30.544Z,6.60
2023-03-05T09:15:59.915Z,6.70
2023-03-05T09:18:28.328Z,6.70
2023-03-05T09:20:55.873Z,6.60
2023-03-05T09:23:25.357Z,6.90
2023-03-05T09:25:52.610Z,7.20
2023-03-05T09:28:19.929Z,7.70
2023-03-05T09:30:47.607Z,7.80
2023-03-05T09:33:15.090Z,7.70
2023-03-05T09:35:42.411Z,8.20
2023-03-05T09:38:09.858Z,8.30
2023-03-05T09:41:14.144Z,8.60
2023-03-05T09:44:16.944Z,8.40
2023-03-05T09:46:54.922Z,8.00
2023-03-05T09:49:46.695Z,8.00
2023-03-05T09:52:22.031Z,7.80
2023-03-05T09:54:57.699Z,7.50
2023-03-05T09:57:36.063Z,7.30
2023-03-05T10:00:10.475Z,7.60
2023-03-05T10:02:51.144Z,8.00
2023-03-05T10:05:29.929Z,8.40
2023-03-05T10:08:03.300Z,8.60
2023-03-05T10:10:41.338Z,8.50
2023-03-05T10:13:24.867Z,7.80
2023-03-05T10:16:11.367Z,8.10
2023-03-05T10:18:59.687Z,8.30
2023-03-05T10:22:08.268Z,8.80
2023-03-05T10:24:49.980Z,8.80
2023-03-05T10:27:27.001Z,8.70
2023-03-05T10:30:01.144Z,8.90
2023-03-05T10:32:50.651Z,8.50
2023-03-05T10:35:40.893Z,8.20
2023-03-05T10:38:17.218Z,7.90
2023-03-05T10:40:52.230Z,7.60
2023-03-05T10:43:57.246Z,7.30
2023-03-05T10:46:32.293Z,7.10
2023-03-05T10:49:06.321Z,7.30
2023-03-05T10:52:04.257Z,7.60
2023-03-05T10:54:33.789Z,7.80
2023-03-05T10:57:13.010Z,8.00
2023-03-05T10:59:51.419Z,8.10
2023-03-05T11:02:20.346Z,8.20
2023-03-05T11:04:48.756Z,8.30
2023-03-05T11:07:16.089Z,8.30
2023-03-05T11:10:01.981Z,8.10
2023-03-05T11:12:37.037Z,7.90
2023-03-05T11:15:10.378Z,8.00
2023-03-05T11:17:43.279Z,8.30
2023-03-05T11:20:29.229Z,8.70
2023-03-05T11:23:10.048Z,8.50
2023-03-05T11:26:08.369Z,8.50
2023-03-05T11:29:00.941Z,8.30
2023-03-05T11:31:31.567Z,8.30
2023-03-05T11:34:05.415Z,8.50
2023-03-05T11:36:38.956Z,8.50
2023-03-05T11:39:06.309Z,8.90
2023-03-05T11:41:50.757Z,8.90
2023-03-05T11:44:27.426Z,8.80
2023-03-05T11:47:07.318Z,8.80
2023-03-05T11:49:43.291Z,9.10
2023-03-05T11:52:32.447Z,8.90
2023-03-05T11:55:08.899Z,8.80
2023-03-05T11:57:50.208Z,9.20
2023-03-05T12:00:23.661Z,9.10
2023-03-05T12:02:54.715Z,8.90
2023-03-05T12:05:22.777Z,8.90
2023-03-05T12:07:54.101Z,8.70
2023-03-05T12:10:24.503Z,8.50
2023-03-05T12:13:12.497Z,8.60
2023-03-05T12:16:07.048Z,8.40
2023-03-05T12:19:02.117Z,8.40
2023-03-05T12:21:41.477Z,8.40
2023-03-05T12:24:26.676Z,8.00
2023-03-05T12:27:04.146Z,7.90
2023-03-05T12:29:50.373Z,7.70
2023-03-05T12:32:28.857Z,7.70
2023-03-05T12:34:57.691Z,7.50
2023-03-05T12:37:24.906Z,7.30
2023-03-05T12:40:04.931Z,7.20
2023-03-05T12:42:32.200Z,7.00
2023-03-05T12:45:11.854Z,7.20
2023-03-05T12:47:43.503Z,7.30
2023-03-05T12:50:28.808Z,7.40
2023-03-05T12:53:17.520Z,7.70
2023-03-05T12:55:47.464Z,8.00
2023-03-05T12:58:44.185Z,8.40
2023-03-05T13:01:11.523Z,8.40
2023-03-05T13:03:59.571Z,8.50
2023-03-05T13:06:36.351Z,8.40
2023-03-05T13:09:28.482Z,8.70
2023-03-05T13:11:56.361Z,8.90
2023-03-05T13:14:45.688Z,8.80
2023-03-05T13:17:29.392Z,8.70
2023-03-05T13:19:58.573Z,8.90
2023-03-05T13:22:26.681Z,9.00
2023-03-05T13:25:14.617Z,8.90
2023-03-05T13:27:42.555Z,8.80
2023-03-05T13:30:24.672Z,8.70
2023-03-05T13:32:54.763Z,8.70
2023-03-05T13:35:22.514Z,8.80
2023-03-05T13:37:50.166Z,8.80
2023-03-05T13:40:29.578Z,8.70
2023-03-05T13:43:10.171Z,8.70
2023-03-05T13:45:37.518Z,8.40
2023-03-05T13:48:06.939Z,8.40
2023-03-05T13:50:36.972Z,8.20
2023-03-05T13:53:29.680Z,8.10
2023-03-05T13:56:00.410Z,8.20
2023-03-05T13:58:53.674Z,8.20
2023-03-05T14:01:30.478Z,8.40
2023-03-05T14:04:13.584Z,8.30
2023-03-05T14:06:54.728Z,8.30
2023-03-05T14:09:31.324Z,8.20
2023-03-05T14:12:00.560Z,8.30
2023-03-05T14:14:29.607Z,8.20
2023-03-05T14:17:35.614Z,8.10
2023-03-05T14:20:19.172Z,8.10
2023-03-05T14:22:51.038Z,8.10
2023-03-05T14:25:39.445Z,8.00
2023-03-05T14:28:19.087Z,7.90
2023-03-05T14:30:52.470Z,7.90
2023-03-05T14:33:32.474Z,7.70
2023-03-05T14:36:01.908Z,7.60
2023-03-05T14:38:31.750Z,7.40
2023-03-05T14:41:18.209Z,7.30
2023-03-05T14:43:45.478Z,7.30
2023-03-05T14:46:13.762Z,7.10
2023-03-05T14:48:41.168Z,7.10
2023-03-05T14:51:10.775Z,7.10
2023-03-05T14:53:47.344Z,7.30
2023-03-05T14:56:27.314Z,7.40
2023-03-05T14:58:55.320Z,7.40
2023-03-05T15:01:24.334Z,7.40
2023-03-05T15:03:52.175Z,7.40
2023-03-05T15:06:33.144Z,7.40
2023-03-05T15:09:01.675Z,7.40
2023-03-05T15:11:28.985Z,7.30
2023-03-05T15:13:56.391Z,7.30
2023-03-05T15:16:24.005Z,7.30
2023-03-05T15:18:51.425Z,7.10
2023-03-05T15:21:18.725Z,7.00
2023-03-05T15:23:46.094Z,7.10
2023-03-05T15:26:14.838Z,6.90
2023-03-05T15:28:43.035Z,6.90
2023-03-05T15:31:11.052Z,6.80
2023-03-05T15:33:38.973Z,6.80
2023-03-05T15:36:06.796Z,6.80
2023-03-05T15:38:34.180Z,6.70
2023-03-05T15:41:02.078Z,6.70
2023-03-05T15:43:30.544Z,6.70
2023-03-05T15:45:57.866Z,6.70
2023-03-05T15:48:25.163Z,6.80
2023-03-05T15:50:52.472Z,6.70
2023-03-05T15:53:21.537Z,6.70
2023-03-05T15:55:48.881Z,6.60
2023-03-05T15:58:17.339Z,6.60
2023-03-05T16:00:47.293Z,6.50
2023-03-05T16:03:14.974Z,6.40
2023-03-05T16:05:42.834Z,6.40
2023-03-05T16:08:10.320Z,6.20
2023-03-05T16:10:39.550Z,6.20
2023-03-05T16:13:13.350Z,6.20
2023-03-05T16:15:41.541Z,6.20
2023-03-05T16:18:12.382Z,6.10
2023-03-05T16:20:40.136Z,6.00
2023-03-05T16:23:07.527Z,5.90
2023-03-05T16:25:34.820Z,5.90
2023-03-05T16:28:02.419Z,5.80
2023-03-05T16:30:30.210Z,5.80
2023-03-05T16:32:57.559Z,5.70
2023-03-05T16:35:25.140Z,5.70
2023-03-05T16:37:52.486Z,5.70
2023-03-05T16:40:19.803Z,5.60
2023-03-05T16:42:47.097Z,5.60
2023-03-05T16:45:14.515Z,5.50
2023-03-05T16:47:41.828Z,5.50
2023-03-05T16:50:11.931Z,5.40
2023-03-05T16:52:39.651Z,5.40
2023-03-05T16:55:07.382Z,5.40
2023-03-05T16:57:34.798Z,5.30
2023-03-05T17:00:04.091Z,5.30
2023-03-05T17:02:31.445Z,5.30
2023-03-05T17:04:58.824Z,5.20
2023-03-05T17:07:26.569Z,5.20
2023-03-05T17:09:54.634Z,5.20
2023-03-05T17:12:22.969Z,5.20
2023-03-05T17:14:50.350Z,5.10
2023-03-05T17:17:17.927Z,5.10
2023-03-05T17:19:45.469Z,5.10
2023-03-05T17:22:16.052Z,5.00
2023-03-05T17:24:43.563Z,5.00
2023-03-05T17:27:13.009Z,5.00
2023-03-05T17:29:40.301Z,5.00
2023-03-05T17:32:07.863Z,4.90
2023-03-05T17:34:36.852Z,5.00
2023-03-05T17:37:05.041Z,5.00
2023-03-05T17:39:32.654Z,4.90
2023-03-05T17:42:00.997Z,4.90
2023-03-05T17:44:28.311Z,5.00
2023-03-05T17:46:55.689Z,4.90
2023-03-05T17:49:22.972Z,4.80
2023-03-05T17:51:50.205Z,4.80
2023-03-05T17:54:17.490Z,4.80
2023-03-05T17:56:44.844Z,4.80
2023-03-05T17:59:12.213Z,4.80
2023-03-05T18:01:39.552Z,4.70
2023-03-05T18:04:06.888Z,4.60
2023-03-05T18:06:34.177Z,4.60
2023-03-05T18:09:01.515Z,4.60
2023-03-05T18:11:30.566Z,4.60
2023-03-05T18:13:58.004Z,4.50
2023-03-05T18:16:25.501Z,4.50
2023-03-05T18:18:53.315Z,4.50
2023-03-05T18:21:22.865Z,4.50
2023-03-05T18:23:51.298Z,4.50
2023-03-05T18:26:18.762Z,4.50
2023-03-05T18:28:46.073Z,4.50
2023-03-05T18:31:13.471Z,4.40
2023-03-05T18:33:42.128Z,4.40
2023-03-05T18:36:11.707Z,4.40
2023-03-05T18:38:39.176Z,4.30
2023-03-05T18:41:07.847Z,4.30
2023-03-05T18:43:35.868Z,4.30
2023-03-05T18:46:04.979Z,4.40
2023-03-05T18:48:32.524Z,4.40
2023-03-05T18:51:01.852Z,4.40
2023-03-05T18:53:29.613Z,4.40
2023-03-05T18:55:56.883Z,4.40
2023-03-05T18:58:26.008Z,4.40
2023-03-05T19:00:53.531Z,4.40
2023-03-05T19:03:22.858Z,4.30
2023-03-05T19:05:51.200Z,4.30
2023-03-05T19:08:19.498Z,4.30
2023-03-05T19:10:47.001Z,4.20
2023-03-05T19:13:50.239Z,4.20
2023-03-05T19:16:30.364Z,4.20
2023-03-05T19:19:14.064Z,4.20
2023-03-05T19:21:43.364Z,4.20
2023-03-05T19:24:11.378Z,4.20
2023-03-05T19:26:39.189Z,4.20
2023-03-05T19:29:07.790Z,4.10
2023-03-05T19:31:36.527Z,4.10
2023-03-05T19:34:04.166Z,4.10
2023-03-05T19:36:31.953Z,4.10
2023-03-05T19:38:59.401Z,4.10
2023-03-05T19:41:27.747Z,4.00
2023-03-05T19:43:55.414Z,4.00
2023-03-05T19:46:23.181Z,4.00
2023-03-05T19:48:50.745Z,4.00
2023-03-05T19:51:20.420Z,4.00
2023-03-05T19:53:48.226Z,4.00
2023-03-05T19:56:16.409Z,3.90
2023-03-05T19:58:45.956Z,3.90
2023-03-05T20:01:19.059Z,3.90
2023-03-05T20:03:48.381Z,3.90
2023-03-05T20:06:16.194Z,3.90
2023-03-05T20:08:43.730Z,3.90
2023-03-05T20:11:12.732Z,3.90
2023-03-05T20:13:40.471Z,3.80
2023-03-05T20:16:35.627Z,3.80
2023-03-05T20:19:04.132Z,3.80
2023-03-05T20:21:35.270Z,3.80
2023-03-05T20:24:06.095Z,3.70
2023-03-05T20:26:36.486Z,3.60
2023-03-05T20:29:04.839Z,3.60
2023-03-05T20:31:35.254Z,3.60
2023-03-05T20:34:07.256Z,3.50
2023-03-05T20:36:34.754Z,3.50
2023-03-05T20:39:03.638Z,3.50
2023-03-05T20:41:31.681Z,3.50
2023-03-05T20:43:58.973Z,3.50
2023-03-05T20:46:32.495Z,3.50
2023-03-05T20:49:02.133Z,3.50
2023-03-05T20:51:38.052Z,3.50
2023-03-05T20:54:08.761Z,3.50
2023-03-05T20:56:36.860Z,3.50
2023-03-05T20:59:08.398Z,3.50
2023-03-05T21:01:37.921Z,3.50
2023-03-05T21:04:05.555Z,3.40
2023-03-05T21:06:33.365Z,3.40
2023-03-05T21:09:00.995Z,3.40
2023-03-05T21:11:28.612Z,3.30
2023-03-05T21:13:55.887Z,3.30
2023-03-05T21:16:25.971Z,3.30
2023-03-05T21:18:55.818Z,3.40
2023-03-05T21:21:23.510Z,3.40
2023-03-05T21:23:52.036Z,3.30
2023-03-05T21:26:19.679Z,3.40
2023-03-05T21:28:46.947Z,3.40
2023-03-05T21:31:19.224Z,3.40
2023-03-05T21:33:46.631Z,3.40
2023-03-05T21:36:18.567Z,3.40
2023-03-05T21:38:49.848Z,3.50
2023-03-05T21:41:18.137Z,3.50
2023-03-05T21:43:45.649Z,3.40
2023-03-05T21:46:12.996Z,3.50
2023-03-05T21:48:40.316Z,3.50
2023-03-05T21:51:13.515Z,3.50
2023-03-05T21:53:43.622Z,3.50
2023-03-05T21:56:17.720Z,3.50
2023-03-05T21:58:46.745Z,3.50
2023-03-05T22:01:16.154Z,3.50
2023-03-05T22:03:43.666Z,3.50
2023-03-05T22:06:13.018Z,3.50
2023-03-05T22:08:40.400Z,3.50
2023-03-05T22:11:11.926Z,3.50
2023-03-05T22:13:39.486Z,3.50
2023-03-05T22:16:09.118Z,3.40
2023-03-05T22:18:36.630Z,3.50
2023-03-05T22:21:04.759Z,3.50
2023-03-05T22:23:34.497Z,3.60
2023-03-05T22:26:05.307Z,3.60
2023-03-05T22:28:34.054Z,3.50
2023-03-05T22:31:01.481Z,3.50
2023-03-05T22:33:28.983Z,3.50
2023-03-05T22:35:56.872Z,3.50
2023-03-05T22:38:25.359Z,3.40
2023-03-05T22:40:53.256Z,3.40
2023-03-05T22:43:20.663Z,3.40
2023-03-05T22:45:48.241Z,3.40
2023-03-05T22:48:16.244Z,3.40
2023-03-05T22:50:44.260Z,3.40
2023-03-05T22:53:12.489Z,3.40
2023-03-05T22:55:40.837Z,3.40
2023-03-05T22:58:08.612Z,3.40
2023-03-05T23:00:36.085Z,3.40
2023-03-05T23:03:03.764Z,3.40
2023-03-05T23:05:31.121Z,3.30
2023-03-05T23:07:58.357Z,3.30
2023-03-05T23:10:28.722Z,3.30
2023-03-05T23:12:57.851Z,3.30
2023-03-05T23:15:31.005Z,3.30
2023-03-05T23:17:58.497Z,3.30
2023-03-05T23:20:28.628Z,3.30
2023-03-05T23:22:57.030Z,3.20
2023-03-05T23:25:27.709Z,3.20
2023-03-05T23:27:55.635Z,3.20
2023-03-05T23:30:26.720Z,3.20
2023-03-05T23:33:23.809Z,3.20
2023-03-05T23:35:57.290Z,3.20
2023-03-05T23:38:26.149Z,3.10
2023-03-05T23:40:55.734Z,3.10
2023-03-05T23:43:25.011Z,3.10
2023-03-05T23:45:56.814Z,3.10
2023-03-05T23:48:25.542Z,3.00
2023-03-05T23:50:53.330Z,3.10
2023-03-05T23:53:26.632Z,3.00
2023-03-05T23:55:55.022Z,3.00
2023-03-05T23:58:22.954Z,3.00
